PWSweather.com
Personal Weather Stations
Station Observations
KNJOAKLA6
Oakland, NJ 07436

Oakland, NJ 07436

Lat: 41.041, Lon: -74.231

Elevation: 280

Station Type: Davis VP 2

http://stratacolorado.com/oaknjwx/

Latest ConditionsUpdated 12:10:00 PM EDT Wednesday, Apr 16, 2014
Currently Today's Max Today's Min Today's Average
Temperature 40.3°F4.6°C 40.3°F4.6°C 28.7°F-1.8°C 32.3°F0.2°C
Dew Point 20.6°F-6.3°C 30.4°F-0.9°C 18.2°F-7.7°C 22.8°F-5.1°C
Winds 6.0 mph NNW9.7 kmh NNW 12.0 mph N19.3 kmh N - 5.1 mph 8.2 kmh
Wind Gusts 14.0 mph22.5 kmh 26.0 mph41.8 kmh - -
Humidity 45% 91% 45% 68%
Pressure 30.37 in1028.4 mb 30.37 in1028.4 mb 29.89 in1012.2 mb -
Precipitation - 0.01 in0.3 mm - -
Hour Temp Dew Point Humidity Winds Wind Gusts Pressure Precip Precip Rate Daily Precip Total
12:10 PM 40.3°F4.6°C 20.6°F-6.3°C 45% 6.0 mph NNW9.7 kmh NNW 14.0 mph22.5 kmh 30.37 in1028.4 mb 0.00 in0.0 mm 0.00 in/hr0.0 mm/hr 0.01 in0.3 mm
12:00 PM 39.7°F4.3°C 22.1°F-5.5°C 49% 2.0 mph NNW3.2 kmh NNW 12.0 mph19.3 kmh 30.37 in1028.4 mb 0.00 in0.0 mm 0.00 in/hr0.0 mm/hr 0.01 in0.3 mm
11:50 AM 38.8°F3.8°C 21.3°F-5.9°C 49% 5.0 mph NNW8.0 kmh NNW 19.0 mph30.6 kmh 30.37 in1028.4 mb 0.00 in0.0 mm 0.00 in/hr0.0 mm/hr 0.01 in0.3 mm
11:40 AM 38.6°F3.7°C 22.5°F-5.3°C 52% 5.0 mph WNW8.0 kmh WNW 14.0 mph22.5 kmh 30.36 in1028.1 mb 0.00 in0.0 mm 0.00 in/hr0.0 mm/hr 0.01 in0.3 mm
11:30 AM 38.1°F3.4°C 20.6°F-6.3°C 49% 5.0 mph N8.0 kmh N 17.0 mph27.4 kmh 30.35 in1027.8 mb 0.00 in0.0 mm 0.00 in/hr0.0 mm/hr 0.01 in0.3 mm
11:20 AM 37.9°F3.3°C 20.9°F-6.2°C 50% 6.0 mph N9.7 kmh N 15.0 mph24.1 kmh 30.35 in1027.8 mb 0.00 in0.0 mm 0.00 in/hr0.0 mm/hr 0.01 in0.3 mm
11:10 AM 37.7°F3.2°C 21.2°F-6.0°C 51% 3.0 mph NNW4.8 kmh NNW 11.0 mph17.7 kmh 30.34 in1027.4 mb 0.00 in0.0 mm 0.00 in/hr0.0 mm/hr 0.01 in0.3 mm
11:00 AM 37.4°F3.0°C 20.0°F-6.7°C 49% 6.0 mph NNW9.7 kmh NNW 18.0 mph29.0 kmh 30.33 in1027.1 mb 0.00 in0.0 mm 0.00 in/hr0.0 mm/hr 0.01 in0.3 mm
10:50 AM 36.9°F2.7°C 21.8°F-5.7°C 54% 3.0 mph NNW4.8 kmh NNW 13.0 mph20.9 kmh 30.33 in1027.1 mb 0.00 in0.0 mm 0.00 in/hr0.0 mm/hr 0.01 in0.3 mm
10:40 AM 36.5°F2.5°C 21.9°F-5.6°C 55% 6.0 mph NNE9.7 kmh NNE 15.0 mph24.1 kmh 30.32 in1026.8 mb 0.00 in0.0 mm 0.00 in/hr0.0 mm/hr 0.01 in0.3 mm
10:30 AM 35.5°F1.9°C 20.1°F-6.6°C 53% 3.0 mph N4.8 kmh N 15.0 mph24.1 kmh 30.32 in1026.8 mb 0.00 in0.0 mm 0.00 in/hr0.0 mm/hr 0.01 in0.3 mm
10:20 AM 35.0°F1.7°C 19.6°F-6.9°C 53% 11.0 mph N17.7 kmh N 19.0 mph30.6 kmh 30.32 in1026.8 mb 0.00 in0.0 mm 0.00 in/hr0.0 mm/hr 0.01 in0.3 mm
10:10 AM 34.6°F1.4°C 20.5°F-6.4°C 56% 6.0 mph N9.7 kmh N 17.0 mph27.4 kmh 30.31 in1026.4 mb 0.01 in0.3 mm 0.00 in/hr0.0 mm/hr 0.01 in0.3 mm
10:00 AM 34.4°F1.3°C 21.2°F-6.0°C 58% 10.0 mph N16.1 kmh N 19.0 mph30.6 kmh 30.31 in1026.4 mb 0.01 in0.3 mm 0.00 in/hr0.0 mm/hr 0.01 in0.3 mm
09:50 AM 33.7°F0.9°C 21.7°F-5.7°C 61% 7.0 mph NW11.3 kmh NW 15.0 mph24.1 kmh 30.30 in1026.1 mb 0.01 in0.3 mm 0.00 in/hr0.0 mm/hr 0.01 in0.3 mm
09:40 AM 33.0°F0.6°C 19.8°F-6.8°C 58% 8.0 mph NNW12.9 kmh NNW 17.0 mph27.4 kmh 30.29 in1025.7 mb 0.01 in0.3 mm 0.00 in/hr0.0 mm/hr 0.01 in0.3 mm
09:30 AM 33.0°F0.6°C 21.0°F-6.1°C 61% 4.0 mph NW6.4 kmh NW 16.0 mph25.7 kmh 30.28 in1025.4 mb 0.01 in0.3 mm 0.00 in/hr0.0 mm/hr 0.01 in0.3 mm
09:20 AM 32.6°F0.3°C 19.9°F-6.7°C 59% 4.0 mph N6.4 kmh N 14.0 mph22.5 kmh 30.28 in1025.4 mb 0.01 in0.3 mm 0.06 in/hr1.5 mm/hr 0.01 in0.3 mm
09:10 AM 32.0°F0.0°C 19.3°F-7.1°C 59% 2.0 mph N3.2 kmh N 16.0 mph25.7 kmh 30.27 in1025.1 mb 0.00 in0.0 mm 0.00 in/hr0.0 mm/hr 0.01 in0.3 mm
09:00 AM 31.9°F-0.1°C 20.4°F-6.4°C 62% 9.0 mph NNE14.5 kmh NNE 19.0 mph30.6 kmh 30.27 in1025.1 mb 0.00 in0.0 mm 0.00 in/hr0.0 mm/hr 0.01 in0.3 mm
08:50 AM 31.2°F-0.4°C 20.1°F-6.6°C 63% 4.0 mph NNW6.4 kmh NNW 14.0 mph22.5 kmh 30.26 in1024.7 mb 0.00 in0.0 mm 0.00 in/hr0.0 mm/hr 0.01 in0.3 mm
08:40 AM 30.6°F-0.8°C 19.1°F-7.2°C 62% 7.0 mph N11.3 kmh N 18.0 mph29.0 kmh 30.25 in1024.4 mb 0.00 in0.0 mm 0.00 in/hr0.0 mm/hr 0.01 in0.3 mm
08:30 AM 30.2°F-1.0°C 19.1°F-7.2°C 63% 6.0 mph N9.7 kmh N 22.0 mph35.4 kmh 30.25 in1024.4 mb 0.00 in0.0 mm 0.00 in/hr0.0 mm/hr 0.01 in0.3 mm
08:20 AM 29.9°F-1.2°C 18.8°F-7.3°C 63% 12.0 mph N19.3 kmh N 19.0 mph30.6 kmh 30.24 in1024.0 mb 0.00 in0.0 mm 0.00 in/hr0.0 mm/hr 0.01 in0.3 mm
08:10 AM 29.5°F-1.4°C 18.8°F-7.3°C 64% 3.0 mph NW4.8 kmh NW 19.0 mph30.6 kmh 30.23 in1023.7 mb 0.00 in0.0 mm 0.00 in/hr0.0 mm/hr 0.01 in0.3 mm
08:00 AM 29.4°F-1.4°C 18.4°F-7.6°C 63% 9.0 mph NNW14.5 kmh NNW 20.0 mph32.2 kmh 30.22 in1023.4 mb 0.00 in0.0 mm 0.00 in/hr0.0 mm/hr 0.01 in0.3 mm
07:50 AM 29.2°F-1.6°C 18.5°F-7.5°C 64% 10.0 mph N16.1 kmh N 20.0 mph32.2 kmh 30.22 in1023.4 mb 0.00 in0.0 mm 0.00 in/hr0.0 mm/hr 0.01 in0.3 mm
07:40 AM 29.2°F-1.6°C 18.2°F-7.7°C 63% 7.0 mph NNW11.3 kmh NNW 18.0 mph29.0 kmh 30.22 in1023.4 mb 0.00 in0.0 mm 0.00 in/hr0.0 mm/hr 0.01 in0.3 mm
07:30 AM 29.1°F-1.6°C 18.4°F-7.6°C 64% 2.0 mph N3.2 kmh N 15.0 mph24.1 kmh 30.22 in1023.4 mb 0.00 in0.0 mm 0.00 in/hr0.0 mm/hr 0.01 in0.3 mm
07:20 AM 29.0°F-1.7°C 19.4°F-7.0°C 67% 3.0 mph NNE4.8 kmh NNE 13.0 mph20.9 kmh 30.21 in1023.0 mb 0.00 in0.0 mm 0.00 in/hr0.0 mm/hr 0.01 in0.3 mm
07:10 AM 28.8°F-1.8°C 19.6°F-6.9°C 68% 3.0 mph NE4.8 kmh NE 16.0 mph25.7 kmh 30.20 in1022.7 mb 0.00 in0.0 mm 0.00 in/hr0.0 mm/hr 0.01 in0.3 mm
07:00 AM 28.7°F-1.8°C 19.8°F-6.8°C 69% 4.0 mph NW6.4 kmh NW 13.0 mph20.9 kmh 30.20 in1022.7 mb 0.00 in0.0 mm 0.00 in/hr0.0 mm/hr 0.01 in0.3 mm
06:50 AM 28.7°F-1.8°C 19.1°F-7.2°C 67% 2.0 mph N3.2 kmh N 17.0 mph27.4 kmh 30.19 in1022.4 mb 0.00 in0.0 mm 0.00 in/hr0.0 mm/hr 0.01 in0.3 mm
06:40 AM 28.7°F-1.8°C 19.1°F-7.2°C 67% 3.0 mph WSW4.8 kmh WSW 17.0 mph27.4 kmh 30.18 in1022.0 mb 0.00 in0.0 mm 0.00 in/hr0.0 mm/hr 0.01 in0.3 mm
06:30 AM 28.7°F-1.8°C 19.1°F-7.2°C 67% 3.0 mph NNW4.8 kmh NNW 11.0 mph17.7 kmh 30.17 in1021.7 mb 0.00 in0.0 mm 0.00 in/hr0.0 mm/hr 0.01 in0.3 mm
06:20 AM 28.9°F-1.7°C 19.0°F-7.2°C 66% 1.0 mph NW1.6 kmh NW 13.0 mph20.9 kmh 30.16 in1021.3 mb 0.00 in0.0 mm 0.00 in/hr0.0 mm/hr 0.01 in0.3 mm
06:10 AM 29.0°F-1.7°C 18.7°F-7.4°C 65% 2.0 mph N3.2 kmh N 14.0 mph22.5 kmh 30.15 in1021.0 mb 0.00 in0.0 mm 0.00 in/hr0.0 mm/hr 0.01 in0.3 mm
06:00 AM 29.1°F-1.6°C 18.4°F-7.6°C 64% 6.0 mph N9.7 kmh N 19.0 mph30.6 kmh 30.13 in1020.3 mb 0.00 in0.0 mm 0.00 in/hr0.0 mm/hr 0.01 in0.3 mm
05:50 AM 29.3°F-1.5°C 19.4°F-7.0°C 66% 1.0 mph NNE1.6 kmh NNE 14.0 mph22.5 kmh 30.13 in1020.3 mb 0.00 in0.0 mm 0.00 in/hr0.0 mm/hr 0.01 in0.3 mm
05:40 AM 29.4°F-1.4°C 19.8°F-6.8°C 67% 3.0 mph NW4.8 kmh NW 23.0 mph37.0 kmh 30.11 in1019.6 mb 0.00 in0.0 mm 0.00 in/hr0.0 mm/hr 0.01 in0.3 mm
05:30 AM 29.6°F-1.3°C 20.0°F-6.7°C 67% 5.0 mph NW8.0 kmh NW 18.0 mph29.0 kmh 30.09 in1019.0 mb 0.00 in0.0 mm 0.00 in/hr0.0 mm/hr 0.01 in0.3 mm
05:20 AM 29.9°F-1.2°C 20.3°F-6.5°C 67% 10.0 mph N16.1 kmh N 20.0 mph32.2 kmh 30.09 in1019.0 mb 0.00 in0.0 mm 0.00 in/hr0.0 mm/hr 0.01 in0.3 mm
05:10 AM 30.1°F-1.1°C 20.1°F-6.6°C 66% 9.0 mph NNW14.5 kmh NNW 18.0 mph29.0 kmh 30.08 in1018.6 mb 0.00 in0.0 mm 0.00 in/hr0.0 mm/hr 0.01 in0.3 mm
05:00 AM 30.4°F-0.9°C 21.1°F-6.1°C 68% 9.0 mph N14.5 kmh N 16.0 mph25.7 kmh 30.08 in1018.6 mb 0.00 in0.0 mm 0.00 in/hr0.0 mm/hr 0.01 in0.3 mm
04:50 AM 30.7°F-0.7°C 21.7°F-5.7°C 69% 5.0 mph N8.0 kmh N 19.0 mph30.6 kmh 30.08 in1018.6 mb 0.00 in0.0 mm 0.00 in/hr0.0 mm/hr 0.01 in0.3 mm
04:40 AM 31.0°F-0.6°C 22.7°F-5.2°C 71% 2.0 mph NNE3.2 kmh NNE 11.0 mph17.7 kmh 30.07 in1018.3 mb 0.00 in0.0 mm 0.00 in/hr0.0 mm/hr 0.01 in0.3 mm
04:30 AM 31.2°F-0.4°C 23.6°F-4.7°C 73% 5.0 mph NW8.0 kmh NW 15.0 mph24.1 kmh 30.06 in1017.9 mb 0.00 in0.0 mm 0.00 in/hr0.0 mm/hr 0.01 in0.3 mm
04:20 AM 31.2°F-0.4°C 23.6°F-4.7°C 73% 5.0 mph WNW8.0 kmh WNW 17.0 mph27.4 kmh 30.06 in1017.9 mb 0.00 in0.0 mm 0.00 in/hr0.0 mm/hr 0.01 in0.3 mm
04:10 AM 31.4°F-0.3°C 24.1°F-4.4°C 74% 2.0 mph NNE3.2 kmh NNE 15.0 mph24.1 kmh 30.04 in1017.3 mb 0.00 in0.0 mm 0.00 in/hr0.0 mm/hr 0.01 in0.3 mm
04:00 AM 31.5°F-0.3°C 24.5°F-4.2°C 75% 1.0 mph W1.6 kmh W 14.0 mph22.5 kmh 30.04 in1017.3 mb 0.00 in0.0 mm 0.00 in/hr0.0 mm/hr 0.01 in0.3 mm
03:50 AM 31.5°F-0.3°C 24.5°F-4.2°C 75% 10.0 mph NW16.1 kmh NW 15.0 mph24.1 kmh 30.01 in1016.3 mb 0.00 in0.0 mm 0.00 in/hr0.0 mm/hr 0.01 in0.3 mm
03:40 AM 31.6°F-0.2°C 24.6°F-4.1°C 75% 4.0 mph NW6.4 kmh NW 15.0 mph24.1 kmh 29.96 in1014.6 mb 0.00 in0.0 mm 0.00 in/hr0.0 mm/hr 0.01 in0.3 mm
03:30 AM 31.8°F-0.1°C 24.5°F-4.2°C 74% 9.0 mph NW14.5 kmh NW 18.0 mph29.0 kmh 29.93 in1013.5 mb 0.00 in0.0 mm 0.00 in/hr0.0 mm/hr 0.01 in0.3 mm
03:20 AM 31.9°F-0.1°C 24.6°F-4.1°C 74% 9.0 mph N14.5 kmh N 26.0 mph41.8 kmh 29.94 in1013.9 mb 0.00 in0.0 mm 0.00 in/hr0.0 mm/hr 0.01 in0.3 mm
03:10 AM 32.0°F0.0°C 25.0°F-3.9°C 75% 5.0 mph NW8.0 kmh NW 24.0 mph38.6 kmh 29.97 in1014.9 mb 0.00 in0.0 mm 0.00 in/hr0.0 mm/hr 0.01 in0.3 mm
03:00 AM 32.1°F0.1°C 25.7°F-3.5°C 77% 7.0 mph NW11.3 kmh NW 20.0 mph32.2 kmh 29.97 in1014.9 mb 0.00 in0.0 mm 0.00 in/hr0.0 mm/hr 0.01 in0.3 mm
02:50 AM 32.3°F0.2°C 26.2°F-3.2°C 78% 5.0 mph N8.0 kmh N 20.0 mph32.2 kmh 29.94 in1013.9 mb 0.00 in0.0 mm 0.00 in/hr0.0 mm/hr 0.01 in0.3 mm
02:40 AM 32.4°F0.2°C 26.3°F-3.2°C 78% 5.0 mph NNW8.0 kmh NNW 16.0 mph25.7 kmh 29.92 in1013.2 mb 0.00 in0.0 mm 0.00 in/hr0.0 mm/hr 0.01 in0.3 mm
02:30 AM 32.5°F0.3°C 26.4°F-3.1°C 78% 5.0 mph W8.0 kmh W 16.0 mph25.7 kmh 29.96 in1014.6 mb 0.00 in0.0 mm 0.00 in/hr0.0 mm/hr 0.01 in0.3 mm
02:20 AM 32.6°F0.3°C 26.8°F-2.9°C 79% 7.0 mph NNW11.3 kmh NNW 18.0 mph29.0 kmh 29.93 in1013.5 mb 0.00 in0.0 mm 0.00 in/hr0.0 mm/hr 0.01 in0.3 mm
02:10 AM 32.7°F0.4°C 27.5°F-2.5°C 81% 5.0 mph W8.0 kmh W 18.0 mph29.0 kmh 29.94 in1013.9 mb 0.00 in0.0 mm 0.00 in/hr0.0 mm/hr 0.01 in0.3 mm
02:00 AM 32.8°F0.4°C 27.6°F-2.4°C 81% 7.0 mph WNW11.3 kmh WNW 14.0 mph22.5 kmh 29.93 in1013.5 mb 0.00 in0.0 mm 0.00 in/hr0.0 mm/hr 0.01 in0.3 mm
01:50 AM 32.9°F0.5°C 28.0°F-2.2°C 82% 5.0 mph NW8.0 kmh NW 15.0 mph24.1 kmh 29.92 in1013.2 mb 0.00 in0.0 mm 0.00 in/hr0.0 mm/hr 0.01 in0.3 mm
01:40 AM 33.0°F0.6°C 28.7°F-1.8°C 84% 5.0 mph N8.0 kmh N 13.0 mph20.9 kmh 29.91 in1012.9 mb 0.00 in0.0 mm 0.00 in/hr0.0 mm/hr 0.01 in0.3 mm
01:30 AM 33.1°F0.6°C 28.8°F-1.8°C 84% 5.0 mph WNW8.0 kmh WNW 11.0 mph17.7 kmh 29.92 in1013.2 mb 0.00 in0.0 mm 0.00 in/hr0.0 mm/hr 0.01 in0.3 mm
01:20 AM 33.1°F0.6°C 29.1°F-1.6°C 85% 1.0 mph NNW1.6 kmh NNW 12.0 mph19.3 kmh 29.91 in1012.9 mb 0.00 in0.0 mm 0.00 in/hr0.0 mm/hr 0.01 in0.3 mm
01:10 AM 32.9°F0.5°C 29.5°F-1.4°C 87% 2.0 mph NW3.2 kmh NW 12.0 mph19.3 kmh 29.91 in1012.9 mb 0.00 in0.0 mm 0.00 in/hr0.0 mm/hr 0.01 in0.3 mm
01:00 AM 32.9°F0.5°C 29.7°F-1.3°C 88% 1.0 mph N1.6 kmh N 10.0 mph16.1 kmh 29.90 in1012.5 mb 0.00 in0.0 mm 0.00 in/hr0.0 mm/hr 0.01 in0.3 mm
12:50 AM 32.7°F0.4°C 29.8°F-1.2°C 89% 7.0 mph W11.3 kmh W 16.0 mph25.7 kmh 29.89 in1012.2 mb 0.00 in0.0 mm 0.00 in/hr0.0 mm/hr 0.01 in0.3 mm
12:40 AM 32.7°F0.4°C 30.1°F-1.1°C 90% 2.0 mph WNW3.2 kmh WNW 16.0 mph25.7 kmh 29.91 in1012.9 mb 0.00 in0.0 mm 0.00 in/hr0.0 mm/hr 0.01 in0.3 mm
12:30 AM 32.7°F0.4°C 30.4°F-0.9°C 91% Calm Calm 5.0 mph8.0 kmh 29.91 in1012.9 mb 0.00 in0.0 mm 0.00 in/hr0.0 mm/hr 0.01 in0.3 mm
12:20 AM 32.6°F0.3°C 30.3°F-0.9°C 91% 8.0 mph NNW12.9 kmh NNW 13.0 mph20.9 kmh 29.89 in1012.2 mb 0.00 in0.0 mm 0.00 in/hr0.0 mm/hr 0.01 in0.3 mm
12:10 AM 32.5°F0.3°C 30.2°F-1.0°C 91% 2.0 mph W3.2 kmh W 13.0 mph20.9 kmh 29.90 in1012.5 mb 0.01 in0.3 mm 0.00 in/hr0.0 mm/hr 0.01 in0.3 mm
12:00 AM 32.6°F0.3°C 30.3°F-0.9°C 91% 6.0 mph NW9.7 kmh NW 17.0 mph27.4 kmh 29.89 in1012.2 mb 0.01 in0.3 mm 0.00 in/hr0.0 mm/hr 1.31 in33.3 mm